Terminal Aerodrome Forecast
Issued by NWS Raleigh/Durham, NC

Home | Current Version | Previous Version | Text Only | Print | Product List | Glossary On
Versions: 1 2 3 4 5 6 7 8 9 10 11 12 13 14 15 16
000
FTUS42 KRAH 221218 CCA
TAFFAY
TAF COR
KFAY 221218Z 2212/2312 VRB04KT 6SM BR FEW015 SCT080 BKN250
      TEMPO 2212/2215 3SM BR SCT015 BKN250
     FM221500 14006KT P6SM FEW015 SCT040 BKN250
     FM230600 VRB04KT P6SM FEW005 SCT020 OVC150=

USA.gov is the U.S. government's official web portal to all federal, state and local government web resources and services.